createdAt,value
2018-05-10T00:02:00.782Z,21.40
2018-05-10T00:04:28.865Z,16.00
2018-05-10T00:06:56.937Z,11.13
2018-05-10T00:09:25.029Z,11.67
2018-05-10T00:11:53.090Z,12.10
2018-05-10T00:14:21.121Z,12.50
2018-05-10T00:16:49.188Z,11.90
2018-05-10T00:19:17.230Z,12.17
2018-05-10T00:21:45.294Z,12.03
2018-05-10T00:24:13.358Z,12.10
2018-05-10T00:26:41.407Z,11.77
2018-05-10T00:29:09.489Z,11.33
2018-05-10T00:31:37.538Z,12.20
2018-05-10T00:34:05.638Z,12.20
2018-05-10T00:36:33.720Z,12.30
2018-05-10T00:39:01.786Z,13.40
2018-05-10T00:41:29.867Z,11.70
2018-05-10T00:43:57.952Z,13.33
2018-05-10T00:46:26.029Z,11.23
2018-05-10T00:48:54.094Z,12.40
2018-05-10T00:51:22.156Z,12.13
2018-05-10T00:53:50.229Z,11.40
2018-05-10T00:56:18.299Z,12.13
2018-05-10T00:58:46.362Z,12.23
2018-05-10T01:01:14.431Z,13.50
2018-05-10T01:03:42.569Z,13.67
2018-05-10T01:06:10.610Z,13.10
2018-05-10T01:08:38.650Z,12.87
2018-05-10T01:11:06.749Z,12.80
2018-05-10T01:13:34.800Z,12.87
2018-05-10T01:16:02.873Z,13.17
2018-05-10T01:18:30.963Z,13.40
2018-05-10T01:20:59.036Z,12.13
2018-05-10T01:23:27.082Z,14.83
2018-05-10T01:25:55.173Z,20.20
2018-05-10T01:28:23.238Z,22.00
2018-05-10T01:30:51.311Z,13.73
2018-05-10T01:33:19.394Z,13.00
2018-05-10T01:35:59.291Z,12.30
2018-05-10T01:38:27.360Z,12.90
2018-05-10T01:40:55.483Z,13.83
2018-05-10T01:43:23.552Z,12.43
2018-05-10T01:45:51.625Z,12.93
2018-05-10T01:48:19.676Z,14.27
2018-05-10T01:50:47.723Z,13.43
2018-05-10T01:53:15.825Z,13.93
2018-05-10T01:55:43.897Z,13.07
2018-05-10T01:58:11.935Z,13.07
2018-05-10T02:00:39.994Z,13.70
2018-05-10T02:03:08.084Z,14.40
2018-05-10T02:05:36.124Z,13.80
2018-05-10T02:08:04.971Z,14.43
2018-05-10T02:10:33.031Z,13.20
2018-05-10T02:13:01.085Z,13.77
2018-05-10T02:15:29.175Z,13.43
2018-05-10T02:17:57.226Z,14.33
2018-05-10T02:20:25.325Z,13.53
2018-05-10T02:22:53.373Z,13.40
2018-05-10T02:25:21.438Z,14.23
2018-05-10T02:27:49.531Z,13.80
2018-05-10T02:30:17.668Z,13.57
2018-05-10T02:32:45.693Z,13.97
2018-05-10T02:35:13.762Z,14.20
2018-05-10T02:37:41.827Z,14.43
2018-05-10T02:40:09.886Z,14.13
2018-05-10T02:42:37.956Z,14.87
2018-05-10T02:45:06.027Z,14.10
2018-05-10T02:47:34.094Z,13.27
2018-05-10T02:50:02.170Z,15.10
2018-05-10T02:52:30.291Z,16.37
2018-05-10T02:54:58.310Z,15.70
2018-05-10T02:57:26.362Z,16.20
2018-05-10T02:59:55.182Z,16.47
2018-05-10T03:02:23.243Z,16.10
2018-05-10T03:04:51.306Z,16.47
2018-05-10T03:07:19.358Z,15.50
2018-05-10T03:09:47.449Z,16.50
2018-05-10T03:12:15.537Z,16.03
2018-05-10T03:14:43.583Z,16.10
2018-05-10T03:17:11.641Z,18.23
2018-05-10T03:19:39.728Z,16.90
2018-05-10T03:22:07.801Z,16.77
2018-05-10T03:24:35.870Z,17.17
2018-05-10T03:27:03.926Z,16.07
2018-05-10T03:29:31.986Z,15.73
2018-05-10T03:32:00.815Z,16.07
2018-05-10T03:34:28.849Z,16.40
2018-05-10T03:36:57.755Z,16.43
2018-05-10T03:39:25.796Z,16.47
2018-05-10T03:41:53.869Z,17.00
2018-05-10T03:44:22.688Z,16.17
2018-05-10T03:46:50.780Z,15.70
2018-05-10T03:49:18.837Z,15.90
2018-05-10T03:51:46.895Z,15.57
2018-05-10T03:54:14.965Z,15.43
2018-05-10T03:56:43.050Z,16.10
2018-05-10T03:59:11.638Z,15.83
2018-05-10T04:01:40.417Z,16.30
2018-05-10T04:07:18.006Z,15.67
2018-05-10T04:09:58.837Z,16.23
2018-05-10T04:12:26.902Z,16.40
2018-05-10T04:14:54.935Z,15.13
2018-05-10T04:17:23.021Z,17.10
2018-05-10T04:19:51.071Z,17.10
2018-05-10T04:22:19.966Z,16.07
2018-05-10T04:24:48.035Z,16.40
2018-05-10T04:27:16.879Z,17.27
2018-05-10T04:29:45.715Z,17.00
2018-05-10T04:32:13.762Z,17.70
2018-05-10T04:34:41.831Z,16.10
2018-05-10T04:37:09.885Z,16.57
2018-05-10T04:39:37.957Z,15.57
2018-05-10T04:42:06.022Z,16.20
2018-05-10T04:44:34.108Z,15.63
2018-05-10T04:47:02.171Z,16.33
2018-05-10T04:49:30.238Z,16.20
2018-05-10T04:51:58.310Z,16.67
2018-05-10T04:54:27.150Z,14.07
2018-05-10T04:59:28.707Z,14.93
2018-05-10T05:01:56.762Z,15.27
2018-05-10T05:04:24.811Z,15.10
2018-05-10T05:06:52.925Z,16.10
2018-05-10T05:09:20.960Z,14.27
2018-05-10T05:11:49.018Z,14.67
2018-05-10T05:14:17.172Z,13.97
2018-05-10T05:16:45.210Z,14.20
2018-05-10T05:19:14.078Z,13.60
2018-05-10T05:21:42.123Z,13.60
2018-05-10T05:24:10.180Z,13.50
2018-05-10T05:26:38.244Z,13.17
2018-05-10T05:29:06.332Z,12.97
2018-05-10T05:31:34.381Z,13.80
2018-05-10T05:34:02.474Z,12.83
2018-05-10T05:36:30.555Z,12.03
2018-05-10T05:38:58.641Z,12.20
2018-05-10T05:41:26.722Z,12.87
2018-05-10T05:43:54.785Z,12.90
2018-05-10T05:46:22.854Z,11.73
2018-05-10T05:48:50.928Z,12.03
2018-05-10T05:51:19.025Z,11.00
2018-05-10T05:53:47.075Z,12.23
2018-05-10T05:56:15.118Z,10.23
2018-05-10T05:58:43.196Z,10.80
2018-05-10T06:01:11.257Z,10.50
2018-05-10T06:03:39.346Z,9.10
2018-05-10T06:06:07.395Z,10.10
2018-05-10T06:08:35.537Z,10.57
2018-05-10T06:11:03.545Z,9.53
2018-05-10T06:13:31.622Z,8.70
2018-05-10T06:16:00.541Z,9.70
2018-05-10T06:18:28.489Z,9.53
2018-05-10T06:20:56.569Z,9.20
2018-05-10T06:23:24.654Z,9.37
2018-05-10T06:25:52.707Z,9.67
2018-05-10T06:28:20.817Z,9.13
2018-05-10T06:30:48.854Z,9.90
2018-05-10T06:33:17.017Z,9.00
2018-05-10T06:35:45.088Z,8.40
2018-05-10T06:38:13.178Z,9.50
2018-05-10T06:40:41.233Z,8.80
2018-05-10T06:43:09.293Z,8.50
2018-05-10T06:45:37.375Z,9.50
2018-05-10T06:48:06.177Z,9.03
2018-05-10T06:50:34.237Z,8.10
2018-05-10T06:53:02.692Z,7.90
2018-05-10T06:55:30.763Z,8.13
2018-05-10T06:57:58.806Z,8.07
2018-05-10T07:00:27.641Z,9.13
2018-05-10T07:02:55.672Z,7.20
2018-05-10T07:05:24.505Z,9.17
2018-05-10T07:07:52.632Z,7.80
2018-05-10T07:10:20.740Z,8.93
2018-05-10T07:12:48.856Z,8.50
2018-05-10T07:15:17.666Z,8.50
2018-05-10T07:17:45.731Z,8.10
2018-05-10T07:20:14.609Z,8.20
2018-05-10T07:22:42.808Z,7.87
2018-05-10T07:25:10.895Z,7.70
2018-05-10T07:27:39.805Z,6.43
2018-05-10T07:30:07.859Z,7.10
2018-05-10T07:32:35.930Z,7.20
2018-05-10T07:35:04.822Z,7.70
2018-05-10T07:37:32.868Z,7.30
2018-05-10T07:40:02.605Z,6.77
2018-05-10T07:42:30.628Z,7.03
2018-05-10T07:44:58.658Z,7.10
2018-05-10T07:47:26.843Z,6.80
2018-05-10T07:49:54.805Z,7.77
2018-05-10T07:52:22.849Z,7.73
2018-05-10T07:54:50.943Z,7.50
2018-05-10T07:57:19.007Z,6.80
2018-05-10T07:59:47.064Z,7.40
2018-05-10T08:02:15.160Z,7.13
2018-05-10T08:04:43.608Z,6.90
2018-05-10T08:07:11.690Z,7.17
2018-05-10T08:09:40.163Z,8.00
2018-05-10T08:12:08.201Z,6.40
2018-05-10T08:14:36.267Z,6.77
2018-05-10T08:17:04.346Z,7.23
2018-05-10T08:19:32.404Z,6.93
2018-05-10T08:22:00.471Z,7.20
2018-05-10T08:24:28.556Z,6.30
2018-05-10T08:26:56.609Z,7.27
2018-05-10T08:29:30.468Z,6.40
2018-05-10T08:31:58.614Z,6.23
2018-05-10T08:34:27.671Z,8.10
2018-05-10T08:36:55.773Z,10.23
2018-05-10T08:39:24.617Z,6.70
2018-05-10T08:41:52.728Z,6.60
2018-05-10T08:44:20.778Z,7.40
2018-05-10T08:46:48.839Z,7.45
2018-05-10T08:49:16.934Z,7.77
2018-05-10T08:51:45.057Z,7.78
2018-05-10T08:54:13.070Z,8.43
2018-05-10T08:56:41.126Z,8.70
2018-05-10T08:59:09.205Z,12.80
2018-05-10T09:01:37.269Z,11.40
2018-05-10T09:04:05.361Z,13.90
2018-05-10T09:06:33.422Z,13.30
2018-05-10T09:09:01.483Z,14.10
2018-05-10T09:11:29.573Z,17.07
2018-05-10T09:13:57.643Z,18.63
2018-05-10T09:16:25.718Z,20.17
2018-05-10T09:18:53.774Z,20.40
2018-05-10T09:21:21.846Z,24.47
2018-05-10T09:23:49.952Z,26.70
2018-05-10T09:26:18.015Z,26.60
2018-05-10T09:28:46.083Z,30.50
2018-05-10T09:31:14.134Z,30.53
2018-05-10T09:33:42.976Z,34.67
2018-05-10T09:36:11.291Z,39.80
2018-05-10T09:38:39.356Z,41.63
2018-05-10T09:41:07.418Z,42.10
2018-05-10T09:43:36.645Z,41.57
2018-05-10T09:46:04.708Z,42.80
2018-05-10T09:48:32.799Z,42.10
2018-05-10T09:51:00.857Z,43.00
2018-05-10T09:53:30.402Z,46.67
2018-05-10T09:55:58.480Z,44.97
2018-05-10T09:58:26.534Z,44.33
2018-05-10T10:00:54.605Z,43.10
2018-05-10T10:03:22.658Z,48.73
2018-05-10T10:05:50.759Z,45.80
2018-05-10T10:08:18.789Z,46.70
2018-05-10T10:10:46.847Z,48.57
2018-05-10T10:13:14.910Z,49.00
2018-05-10T10:15:42.993Z,48.97
2018-05-10T10:18:11.050Z,52.97
2018-05-10T10:20:39.123Z,48.70
2018-05-10T10:23:07.183Z,51.47
2018-05-10T10:25:35.265Z,53.27
2018-05-10T10:28:03.353Z,53.70
2018-05-10T10:30:31.433Z,58.87
2018-05-10T10:32:59.485Z,55.17
2018-05-10T10:35:27.542Z,53.20
2018-05-10T10:37:55.662Z,53.67
2018-05-10T10:40:23.707Z,53.43
2018-05-10T10:42:51.769Z,51.60
2018-05-10T10:45:19.845Z,51.83
2018-05-10T10:47:47.896Z,52.00
2018-05-10T10:50:16.737Z,49.77
2018-05-10T10:52:44.807Z,49.70
2018-05-10T10:55:13.445Z,51.90
2018-05-10T10:57:41.452Z,50.90
2018-05-10T11:00:09.528Z,53.17
2018-05-10T11:02:37.574Z,51.50
2018-05-10T11:05:05.623Z,55.10
2018-05-10T11:07:34.494Z,51.03
2018-05-10T11:10:03.339Z,51.20
2018-05-10T11:12:31.402Z,52.27
2018-05-10T11:14:59.562Z,51.20
2018-05-10T11:17:27.565Z,53.93
2018-05-10T11:19:55.597Z,54.67
2018-05-10T11:22:23.671Z,50.63
2018-05-10T11:24:51.731Z,51.17
2018-05-10T11:27:20.722Z,51.57
2018-05-10T11:29:48.690Z,48.53
2018-05-10T11:32:16.797Z,48.57
2018-05-10T11:34:44.835Z,48.67
2018-05-10T11:37:13.729Z,50.40
2018-05-10T11:39:42.584Z,49.93
2018-05-10T11:42:11.409Z,45.67
2018-05-10T11:44:39.501Z,46.30
2018-05-10T11:47:07.589Z,45.27
2018-05-10T11:49:35.638Z,42.90
2018-05-10T11:52:03.738Z,40.93
2018-05-10T11:54:31.787Z,33.70
2018-05-10T11:56:59.829Z,34.33
2018-05-10T11:59:28.653Z,34.00
2018-05-10T12:01:56.760Z,33.30
2018-05-10T12:04:25.354Z,32.10
2018-05-10T12:06:53.482Z,32.30
2018-05-10T12:09:21.585Z,30.00
2018-05-10T12:11:50.065Z,30.40
2018-05-10T12:14:18.133Z,30.83
2018-05-10T12:16:46.222Z,29.43
2018-05-10T12:19:14.385Z,29.93
2018-05-10T12:21:42.317Z,28.80
2018-05-10T12:24:10.387Z,30.10
2018-05-10T12:26:38.435Z,30.27
2018-05-10T12:29:07.617Z,30.10
2018-05-10T12:31:36.423Z,28.30
2018-05-10T12:34:04.490Z,29.67
2018-05-10T12:36:33.414Z,27.57
2018-05-10T12:39:01.456Z,25.23
2018-05-10T12:41:29.558Z,23.50
2018-05-10T12:43:58.318Z,22.43
2018-05-10T12:46:26.389Z,20.33
2018-05-10T12:48:55.230Z,17.80
2018-05-10T12:51:23.457Z,19.10
2018-05-10T12:53:51.589Z,18.37
2018-05-10T12:56:19.721Z,17.73
2018-05-10T12:58:47.709Z,17.77
2018-05-10T13:01:15.776Z,17.33
2018-05-10T13:03:43.845Z,17.70
2018-05-10T13:06:11.915Z,17.60
2018-05-10T13:08:40.772Z,16.10
2018-05-10T13:11:08.813Z,20.27
2018-05-10T13:13:36.881Z,18.33
2018-05-10T13:16:04.932Z,19.37
2018-05-10T13:18:33.062Z,19.53
2018-05-10T13:21:01.081Z,18.93
2018-05-10T13:23:29.208Z,19.07
2018-05-10T13:25:57.245Z,18.80
2018-05-10T13:28:25.313Z,19.20
2018-05-10T13:30:53.393Z,17.93
2018-05-10T13:33:22.211Z,16.30
2018-05-10T13:35:50.249Z,19.10
2018-05-10T13:38:18.382Z,16.47
2018-05-10T13:40:47.162Z,17.83
2018-05-10T13:43:15.245Z,17.33
2018-05-10T13:45:43.306Z,17.53
2018-05-10T13:48:11.378Z,16.03
2018-05-10T13:50:39.534Z,16.03
2018-05-10T13:53:07.571Z,15.50
2018-05-10T13:55:35.646Z,15.10
2018-05-10T13:58:04.977Z,15.60
2018-05-10T14:00:33.063Z,17.60
2018-05-10T14:03:01.166Z,13.83
2018-05-10T14:05:29.206Z,12.97
2018-05-10T14:07:57.275Z,12.40
2018-05-10T14:10:25.354Z,11.70
2018-05-10T14:12:53.426Z,11.13
2018-05-10T14:15:21.499Z,10.67
2018-05-10T14:17:49.648Z,9.50
2018-05-10T14:20:18.453Z,9.60
2018-05-10T14:22:46.504Z,9.10
2018-05-10T14:25:14.645Z,10.00
2018-05-10T14:27:42.663Z,9.90
2018-05-10T14:30:10.772Z,8.23
2018-05-10T14:32:38.804Z,8.50
2018-05-10T14:35:06.855Z,7.63
2018-05-10T14:37:35.696Z,8.00
2018-05-10T14:40:03.824Z,6.90
2018-05-10T14:42:31.840Z,7.37
2018-05-10T14:44:59.902Z,8.23
2018-05-10T14:47:27.983Z,7.63
2018-05-10T14:49:56.035Z,6.77
2018-05-10T14:52:24.102Z,5.97
2018-05-10T14:54:52.714Z,7.30
2018-05-10T14:57:20.775Z,6.93
2018-05-10T14:59:48.878Z,7.80
2018-05-10T15:02:16.918Z,6.30
2018-05-10T15:04:44.985Z,5.50
2018-05-10T15:07:13.055Z,6.33
2018-05-10T15:09:41.121Z,7.80
2018-05-10T15:12:09.173Z,5.93
2018-05-10T15:14:37.219Z,5.77
2018-05-10T15:17:05.278Z,6.40
2018-05-10T15:19:33.336Z,5.80
2018-05-10T15:22:01.382Z,5.50
2018-05-10T15:24:29.445Z,7.40
2018-05-10T15:26:57.517Z,4.77
2018-05-10T15:29:25.566Z,5.27
2018-05-10T15:31:53.615Z,5.00
2018-05-10T15:34:21.675Z,5.17
2018-05-10T15:36:49.743Z,5.80
2018-05-10T15:39:17.774Z,6.77
2018-05-10T15:41:45.846Z,5.43
2018-05-10T15:44:15.047Z,5.43
2018-05-10T15:46:43.187Z,4.83
2018-05-10T15:49:11.193Z,6.60
2018-05-10T15:51:40.430Z,5.87
2018-05-10T15:54:08.836Z,5.40
2018-05-10T15:56:37.662Z,4.90
2018-05-10T15:59:05.714Z,7.50
2018-05-10T16:01:33.785Z,5.20
2018-05-10T16:04:01.899Z,3.83
2018-05-10T16:06:30.699Z,4.60
2018-05-10T16:08:59.126Z,5.47
2018-05-10T16:11:27.198Z,4.20
2018-05-10T16:13:55.324Z,5.83
2018-05-10T16:16:24.825Z,3.90
2018-05-10T16:18:54.385Z,5.07
2018-05-10T16:21:23.206Z,4.27
2018-05-10T16:23:51.250Z,4.17
2018-05-10T16:26:19.398Z,4.17
2018-05-10T16:28:47.353Z,3.73
2018-05-10T16:31:16.206Z,4.37
2018-05-10T16:33:45.033Z,4.50
2018-05-10T16:36:13.830Z,4.23
2018-05-10T16:38:42.709Z,3.90
2018-05-10T16:41:12.143Z,4.60
2018-05-10T16:43:40.226Z,4.40
2018-05-10T16:46:08.259Z,4.80
2018-05-10T16:48:37.160Z,4.50
2018-05-10T16:51:05.211Z,5.10
2018-05-10T16:53:33.270Z,4.30
2018-05-10T16:56:01.338Z,3.80
2018-05-10T16:58:29.506Z,4.50
2018-05-10T17:00:57.585Z,4.67
2018-05-10T17:03:25.653Z,3.70
2018-05-10T17:05:53.759Z,4.50
2018-05-10T17:08:22.595Z,6.97
2018-05-10T17:10:51.638Z,4.00
2018-05-10T17:13:20.449Z,4.40
2018-05-10T17:15:48.502Z,5.30
2018-05-10T17:18:16.663Z,4.70
2018-05-10T17:20:45.551Z,4.43
2018-05-10T17:23:13.808Z,5.20
2018-05-10T17:25:42.767Z,3.13
2018-05-10T17:28:11.791Z,3.40
2018-05-10T17:30:39.932Z,4.17
2018-05-10T17:33:08.237Z,3.80
2018-05-10T17:35:36.381Z,3.97
2018-05-10T17:38:04.501Z,4.07
2018-05-10T17:40:33.427Z,4.97
2018-05-10T17:43:01.469Z,4.10
2018-05-10T17:45:29.550Z,4.20
2018-05-10T17:47:57.711Z,4.23
2018-05-10T17:50:25.833Z,3.97
2018-05-10T17:52:53.894Z,4.03
2018-05-10T17:55:22.078Z,4.57
2018-05-10T17:57:50.087Z,4.30
2018-05-10T18:00:18.146Z,4.43
2018-05-10T18:02:46.198Z,4.27
2018-05-10T18:05:14.345Z,4.50
2018-05-10T18:07:42.371Z,4.40
2018-05-10T18:10:11.161Z,4.27
2018-05-10T18:12:39.665Z,4.30
2018-05-10T18:15:07.721Z,4.93
2018-05-10T18:17:36.342Z,4.60
2018-05-10T18:20:05.170Z,4.63
2018-05-10T18:22:33.233Z,5.77
2018-05-10T18:25:01.307Z,5.87
2018-05-10T18:27:29.408Z,4.80
2018-05-10T18:29:57.448Z,4.90
2018-05-10T18:32:25.538Z,4.43
2018-05-10T18:34:53.573Z,4.83
2018-05-10T18:37:21.637Z,4.53
2018-05-10T18:39:49.724Z,4.77
2018-05-10T18:42:17.783Z,5.37
2018-05-10T18:44:45.862Z,4.67
2018-05-10T18:47:13.945Z,5.63
2018-05-10T18:49:41.997Z,4.70
2018-05-10T18:52:10.101Z,3.80
2018-05-10T18:54:38.243Z,4.20
2018-05-10T18:57:07.021Z,3.70
2018-05-10T18:59:35.178Z,3.70
2018-05-10T19:02:03.277Z,3.33
2018-05-10T19:04:31.321Z,3.07
2018-05-10T19:07:00.173Z,3.83
2018-05-10T19:09:28.231Z,3.50
2018-05-10T19:11:57.089Z,3.43
2018-05-10T19:14:25.166Z,3.30
2018-05-10T19:16:53.268Z,3.80
2018-05-10T19:19:21.290Z,3.70
2018-05-10T19:21:50.151Z,3.87
2018-05-10T19:24:18.190Z,3.70
2018-05-10T19:26:46.263Z,3.93
2018-05-10T19:29:14.331Z,3.70
2018-05-10T19:31:42.423Z,4.13
2018-05-10T19:34:10.558Z,3.30
2018-05-10T19:36:38.592Z,3.70
2018-05-10T19:39:06.662Z,3.63
2018-05-10T19:41:34.702Z,5.47
2018-05-10T19:44:02.744Z,3.63
2018-05-10T19:46:30.822Z,4.70
2018-05-10T19:48:58.914Z,4.53
2018-05-10T19:51:26.993Z,3.97
2018-05-10T19:53:55.042Z,3.47
2018-05-10T19:56:23.085Z,4.30
2018-05-10T19:58:51.988Z,3.87
2018-05-10T20:01:20.804Z,3.93
2018-05-10T20:03:49.735Z,3.97
2018-05-10T20:06:17.795Z,3.37
2018-05-10T20:08:45.833Z,3.83
2018-05-10T20:11:13.881Z,3.77
2018-05-10T20:13:42.026Z,4.80
2018-05-10T20:16:10.757Z,3.43
2018-05-10T20:18:38.781Z,4.13
2018-05-10T20:21:06.965Z,4.80
2018-05-10T20:23:34.977Z,5.77
2018-05-10T20:26:03.142Z,4.30
2018-05-10T20:28:31.204Z,4.47
2018-05-10T20:30:59.165Z,5.77
2018-05-10T20:33:27.213Z,5.33
2018-05-10T20:35:55.329Z,5.20
2018-05-10T20:38:23.357Z,4.17
2018-05-10T20:40:52.219Z,4.63
2018-05-10T20:43:20.301Z,4.70
2018-05-10T20:45:48.309Z,4.77
2018-05-10T20:48:17.142Z,6.90
2018-05-10T20:50:45.198Z,4.43
2018-05-10T20:53:13.282Z,5.28
2018-05-10T20:55:41.335Z,4.20
2018-05-10T20:58:09.386Z,4.93
2018-05-10T21:00:37.474Z,5.47
2018-05-10T21:03:05.551Z,5.17
2018-05-10T21:05:33.635Z,5.27
2018-05-10T21:08:01.707Z,4.33
2018-05-10T21:10:29.829Z,5.50
2018-05-10T21:12:58.617Z,4.80
2018-05-10T21:15:27.416Z,5.60
2018-05-10T21:17:56.266Z,5.90
2018-05-10T21:20:24.318Z,5.60
2018-05-10T21:22:52.411Z,5.00
2018-05-10T21:25:20.462Z,4.70
2018-05-10T21:27:48.521Z,5.20
2018-05-10T21:30:17.359Z,5.77
2018-05-10T21:32:45.438Z,5.80
2018-05-10T21:35:13.603Z,5.93
2018-05-10T21:37:41.682Z,6.10
2018-05-10T21:40:10.541Z,5.40
2018-05-10T21:42:38.589Z,6.53
2018-05-10T21:45:06.697Z,7.13
2018-05-10T21:47:34.750Z,6.32
2018-05-10T21:50:05.592Z,6.97
2018-05-10T21:52:33.683Z,7.80
2018-05-10T21:55:01.749Z,6.50
2018-05-10T21:57:29.790Z,5.63
2018-05-10T21:59:57.841Z,6.50
2018-05-10T22:02:25.933Z,6.47
2018-05-10T22:04:54.037Z,6.40
2018-05-10T22:07:22.113Z,6.07
2018-05-10T22:09:50.149Z,6.30
2018-05-10T22:12:18.224Z,6.10
2018-05-10T22:14:46.296Z,6.57
2018-05-10T22:17:14.357Z,6.73
2018-05-10T22:19:42.426Z,6.80
2018-05-10T22:22:10.497Z,7.30
2018-05-10T22:24:38.585Z,7.00
2018-05-10T22:27:06.640Z,7.13
2018-05-10T22:29:34.739Z,7.20
2018-05-10T22:32:02.813Z,7.57
2018-05-10T22:34:30.856Z,8.60
2018-05-10T22:36:58.991Z,7.27
2018-05-10T22:39:27.046Z,7.07
2018-05-10T22:41:55.129Z,6.90
2018-05-10T22:44:24.042Z,6.93
2018-05-10T22:46:52.070Z,7.60
2018-05-10T22:49:20.142Z,7.43
2018-05-10T22:51:48.174Z,7.40
2018-05-10T22:54:16.250Z,7.70
2018-05-10T22:56:44.320Z,7.93
2018-05-10T22:59:12.424Z,8.50
2018-05-10T23:01:40.491Z,9.20
2018-05-10T23:04:08.563Z,8.20
2018-05-10T23:06:36.598Z,9.17
2018-05-10T23:09:04.673Z,9.97
2018-05-10T23:11:32.737Z,8.30
2018-05-10T23:14:00.802Z,7.70
2018-05-10T23:16:29.220Z,9.10
2018-05-10T23:18:57.294Z,8.10
2018-05-10T23:21:25.351Z,8.47
2018-05-10T23:23:53.418Z,9.23
2018-05-10T23:26:21.485Z,9.17
2018-05-10T23:28:49.528Z,9.13
2018-05-10T23:31:17.627Z,8.73
2018-05-10T23:33:45.684Z,8.90
2018-05-10T23:36:14.282Z,8.40
2018-05-10T23:38:42.427Z,8.07
2018-05-10T23:41:10.498Z,7.83
2018-05-10T23:43:39.313Z,8.00
2018-05-10T23:46:07.382Z,7.53
2018-05-10T23:48:35.454Z,7.60
2018-05-10T23:51:03.517Z,7.63
2018-05-10T23:53:32.390Z,8.47
2018-05-10T23:56:00.453Z,7.80
2018-05-10T23:58:29.277Z,7.40
